Time;durP1;ratioP1;P1;durP2;ratioP2;P2;SDS_P1;SDS_P2;PMS_P1;PMS_P2;Temp;Humidity;BMP_temperature;BMP_pressure;BME280_temperature;BME280_humidity;BME280_pressure;Samples;Min_cycle;Max_cycle;Signal;HPM_P1;HPM_P2
2022/11/11 00:01:06;;;;;;;20.95;8.68;;;;;;;8.43;100.00;101574.91;4989720;28;20573;-61
2022/11/11 00:03:32;;;;;;;31.98;9.85;;;;;;;8.42;100.00;101570.50;4989352;28;20070;-61
2022/11/11 00:06:07;;;;;;;20.23;8.93;;;;;;;8.42;100.00;101565.22;4989904;28;20053;-61
2022/11/11 00:08:33;;;;;;;27.50;9.35;;;;;;;8.45;100.00;101570.50;4993090;28;20041;-62
2022/11/11 00:11:10;;;;;;;22.98;9.13;;;;;;;8.49;100.00;101566.97;4992981;28;20406;-62
2022/11/11 00:13:38;;;;;;;17.67;7.32;;;;;;;8.56;100.00;101574.03;4993338;28;20023;-62
2022/11/11 00:16:24;;;;;;;14.82;7.82;;;;;;;8.65;100.00;101569.63;4992941;28;20460;-62
2022/11/11 00:27:07;;;;;;;15.35;7.05;;;;;;;8.82;100.00;101582.88;4992553;28;20101;-61
2022/11/11 00:29:32;;;;;;;18.52;7.50;;;;;;;8.85;100.00;101573.16;4992491;28;20038;-61
2022/11/11 00:32:40;;;;;;;14.98;8.27;;;;;;;8.87;100.00;101571.38;4993152;28;20121;-62
2022/11/11 00:37:32;;;;;;;14.82;8.13;;;;;;;8.88;100.00;101577.59;4992572;28;20040;-62
2022/11/11 00:39:57;;;;;;;16.15;8.07;;;;;;;8.88;100.00;101580.25;4992477;28;20038;-61
2022/11/11 00:42:23;;;;;;;14.13;7.15;;;;;;;8.92;100.00;101587.28;4992677;28;20077;-61
2022/11/11 00:44:48;;;;;;;13.35;6.05;;;;;;;8.92;100.00;101589.94;4992685;28;20430;-62
2022/11/11 00:52:45;;;;;;;14.55;5.55;;;;;;;8.77;100.00;101579.34;4995696;28;19936;-61
2022/11/11 00:55:11;;;;;;;11.70;6.30;;;;;;;8.80;100.00;101584.63;4992380;28;20096;-62
2022/11/11 00:57:36;;;;;;;13.07;6.03;;;;;;;8.78;100.00;101586.44;4992437;28;20086;-61
2022/11/11 01:00:02;;;;;;;12.93;6.10;;;;;;;8.79;100.00;101599.69;4992575;28;20493;-61
2022/11/11 01:02:28;;;;;;;11.60;6.07;;;;;;;8.82;100.00;101597.03;4992236;28;20109;-62
2022/11/11 01:04:53;;;;;;;13.20;6.10;;;;;;;8.78;100.00;101595.25;4991750;28;20134;-62
2022/11/11 01:07:19;;;;;;;22.98;6.32;;;;;;;8.79;100.00;101604.09;4992163;28;20026;-61
2022/11/11 01:09:44;;;;;;;13.82;6.63;;;;;;;8.79;100.00;101599.69;4994388;28;20398;-62
2022/11/11 01:12:09;;;;;;;16.15;6.03;;;;;;;8.79;100.00;101601.47;4992490;28;20034;-61
2022/11/11 01:14:35;;;;;;;13.52;5.55;;;;;;;8.81;100.00;101597.03;4990889;28;20029;-62
2022/11/11 01:17:00;;;;;;;13.32;5.75;;;;;;;8.86;100.00;101601.44;4991356;28;20054;-62
2022/11/11 01:19:26;;;;;;;13.82;6.28;;;;;;;8.82;100.00;101582.88;4991507;28;20105;-62
2022/11/11 01:21:51;;;;;;;14.52;6.30;;;;;;;8.94;100.00;101589.06;4991548;28;20073;-62
2022/11/11 01:24:16;;;;;;;28.75;6.20;;;;;;;8.98;100.00;101587.28;4992709;28;20042;-62
2022/11/11 01:26:42;;;;;;;31.73;8.27;;;;;;;9.01;100.00;101585.50;4991425;28;20116;-63
2022/11/11 01:29:07;;;;;;;21.30;6.78;;;;;;;9.03;100.00;101593.47;4989382;28;20563;-62
2022/11/11 01:31:33;;;;;;;15.65;5.53;;;;;;;9.11;100.00;101604.94;4991741;28;20030;-62
2022/11/11 01:33:58;;;;;;;26.90;8.50;;;;;;;9.14;100.00;101607.63;4992641;28;20034;-62
2022/11/11 01:36:25;;;;;;;18.40;5.85;;;;;;;9.20;100.00;101610.25;4993141;28;20392;-61
2022/11/11 01:38:56;;;;;;;16.52;6.20;;;;;;;9.22;100.00;101601.38;4992986;28;20100;-62
2022/11/11 01:41:32;;;;;;;23.38;7.10;;;;;;;9.28;100.00;101605.81;4995167;28;20030;-61
2022/11/11 01:44:12;;;;;;;21.58;6.07;;;;;;;9.26;100.00;101615.56;4993156;28;20026;-61
2022/11/11 01:46:53;;;;;;;26.27;7.13;;;;;;;9.26;100.00;101618.22;4993092;28;20030;-61
2022/11/11 01:49:31;;;;;;;18.67;6.15;;;;;;;9.22;100.00;101621.78;4993056;28;20032;-61
2022/11/11 01:52:32;;;;;;;14.05;6.60;;;;;;;9.20;100.00;101619.13;4992872;28;20026;-61
2022/11/11 01:55:02;;;;;;;16.65;5.88;;;;;;;9.24;100.00;101612.03;4992562;28;20074;-62
2022/11/11 01:57:35;;;;;;;9.27;5.80;;;;;;;9.25;100.00;101605.81;4992901;28;20065;-62
2022/11/11 02:00:36;;;;;;;;;;;;;;;9.32;100.00;101602.28;4993203;28;20113;-62
2022/11/11 02:03:07;;;;;;;12.00;5.88;;;;;;;9.36;100.00;101597.84;4954126;28;19911;-66
2022/11/11 02:05:42;;;;;;;11.15;5.50;;;;;;;9.37;100.00;101589.88;4970685;28;20430;-65
2022/11/11 02:08:31;;;;;;;12.80;5.95;;;;;;;9.31;100.00;101596.06;4970764;28;20074;-65
2022/11/11 02:14:34;;;;;;;12.15;6.47;;;;;;;9.31;100.00;101595.19;4948962;29;20392;-65
2022/11/11 02:16:48;;;;;;;;;;;;;;;9.25;100.00;101600.53;4952112;29;20165;-66
2022/11/11 02:19:17;;;;;;;8.82;5.45;;;;;;;9.24;100.00;101606.72;4951301;29;19914;-65
2022/11/11 02:21:54;;;;;;;25.95;6.38;;;;;;;9.22;100.00;101600.53;4951646;29;20043;-66
2022/11/11 02:24:22;;;;;;;9.13;5.72;;;;;;;9.21;100.00;101612.91;4951043;29;20098;-66
2022/11/11 02:26:48;;;;;;;14.30;5.65;;;;;;;9.20;100.00;101615.56;4950287;29;20038;-65
2022/11/11 02:29:17;;;;;;;13.50;6.38;;;;;;;9.19;100.00;101612.03;4949601;28;20047;-66
2022/11/11 02:31:43;;;;;;;12.45;5.70;;;;;;;9.11;100.00;101605.84;4949818;29;20039;-66
2022/11/11 02:34:08;;;;;;;12.05;6.05;;;;;;;9.11;100.00;101597.88;4976620;28;20682;-66
2022/11/11 02:36:35;;;;;;;13.52;5.97;;;;;;;9.13;100.00;101605.84;4991027;28;20037;-65
2022/11/11 02:39:00;;;;;;;14.32;6.03;;;;;;;9.15;100.00;101606.72;4991488;28;20485;-66
2022/11/11 02:44:10;;;;;;;;;;;;;;;9.19;100.00;101613.81;4995054;28;20088;-66
2022/11/11 02:46:35;;;;;;;17.63;5.80;;;;;;;9.18;100.00;101612.91;4992057;28;19913;-66
2022/11/11 02:49:00;;;;;;;16.25;5.90;;;;;;;9.17;100.00;101613.81;4991658;28;20089;-65
2022/11/11 02:51:26;;;;;;;11.43;5.50;;;;;;;9.24;100.00;101620.00;4990489;28;20034;-65
2022/11/11 02:53:51;;;;;;;12.35;5.95;;;;;;;9.24;100.00;101625.31;4991583;28;20438;-65
2022/11/11 02:57:05;;;;;;;9.75;5.78;;;;;;;9.31;100.00;101624.38;4991770;28;20458;-66
2022/11/11 02:59:02;;;;;;;12.52;5.43;;;;;;;9.33;100.00;101620.88;4991935;28;20062;-66
2022/11/11 03:01:27;;;;;;;23.42;6.53;;;;;;;9.31;100.00;101624.38;4991721;28;20061;-66
2022/11/11 03:03:53;;;;;;;39.30;7.78;;;;;;;9.36;100.00;101619.97;4991586;28;20105;-66
2022/11/11 03:06:18;;;;;;;14.98;6.18;;;;;;;9.33;100.00;101609.34;4991530;28;20049;-66
2022/11/11 03:08:43;;;;;;;15.90;6.75;;;;;;;9.41;100.00;101606.69;4991967;28;20389;-66
2022/11/11 03:11:09;;;;;;;22.42;6.80;;;;;;;9.41;100.00;101599.59;4991107;28;20050;-66
2022/11/11 03:13:34;;;;;;;19.52;6.10;;;;;;;9.45;100.00;101598.72;4991534;28;20029;-66
2022/11/11 03:16:00;;;;;;;11.65;6.82;;;;;;;9.46;100.00;101594.25;4992071;28;20470;-66
2022/11/11 03:18:25;;;;;;;16.40;6.78;;;;;;;9.50;100.00;101590.72;5006205;28;20017;-66
2022/11/11 03:21:05;;;;;;;11.93;6.28;;;;;;;9.49;100.00;101589.81;5010595;28;20118;-66
2022/11/11 03:23:31;;;;;;;10.82;5.07;;;;;;;9.42;100.00;101587.19;5010472;28;20072;-65
2022/11/11 03:25:56;;;;;;;14.60;6.72;;;;;;;9.40;100.00;101595.19;5010455;28;20537;-66
2022/11/11 03:28:25;;;;;;;9.40;5.22;;;;;;;9.37;100.00;101592.53;4992068;28;20091;-66
2022/11/11 03:30:50;;;;;;;14.63;6.50;;;;;;;9.37;100.00;101595.19;4991440;28;20029;-66
2022/11/11 03:33:17;;;;;;;13.65;5.63;;;;;;;9.34;100.00;101589.84;4991405;28;20030;-66
2022/11/11 03:35:45;;;;;;;11.52;6.05;;;;;;;9.39;100.00;101596.03;4991630;28;20262;-66
2022/11/11 03:38:14;;;;;;;20.30;6.40;;;;;;;9.24;100.00;101565.09;4991281;28;20018;-66
2022/11/11 03:40:47;;;;;;;7.95;5.68;;;;;;;9.45;100.00;101589.84;4991472;28;20108;-66
2022/11/11 03:43:14;;;;;;;9.75;5.90;;;;;;;9.39;100.00;101596.03;4995249;28;20120;-66
2022/11/11 03:45:41;;;;;;;13.88;5.90;;;;;;;9.38;100.00;101594.28;4995340;28;20042;-66
2022/11/11 03:48:06;;;;;;;17.20;5.95;;;;;;;9.39;100.00;101609.31;4995233;28;20110;-66
2022/11/11 03:50:33;;;;;;;10.10;6.43;;;;;;;9.43;100.00;101611.09;5004536;28;20026;-66
2022/11/11 03:52:58;;;;;;;10.52;6.13;;;;;;;9.46;100.00;101620.81;5014559;28;20049;-66
2022/11/11 03:55:24;;;;;;;13.90;5.47;;;;;;;9.50;100.00;101612.84;5014692;28;20441;-66
2022/11/11 03:57:50;;;;;;;13.23;5.47;;;;;;;9.54;100.00;101619.91;5014701;28;20018;-66
2022/11/11 04:00:19;;;;;;;10.95;6.10;;;;;;;9.55;100.00;101620.81;4998700;28;20540;-66
2022/11/11 04:11:04;;;;;;;17.35;6.55;;;;;;;9.61;100.00;101634.94;4994697;28;20195;-66
2022/11/11 04:16:16;;;;;;;10.93;5.68;;;;;;;9.64;100.00;101648.22;4994628;28;20046;-66
2022/11/11 04:21:43;;;;;;;;;;;;;;;9.79;100.00;101655.25;4995086;28;20508;-66
2022/11/11 04:26:59;;;;;;;25.02;6.88;;;;;;;9.81;100.00;101658.81;4994859;28;20037;-66
2022/11/11 04:29:28;;;;;;;12.27;6.10;;;;;;;9.82;100.00;101660.59;4994492;28;20482;-66
2022/11/11 04:34:49;;;;;;;16.80;6.13;;;;;;;9.83;100.00;101667.66;4993930;28;20053;-66
2022/11/11 04:37:16;;;;;;;10.57;5.80;;;;;;;9.74;100.00;101659.69;4993821;28;20761;-66
2022/11/11 04:42:27;;;;;;;13.43;5.60;;;;;;;9.70;100.00;101665.94;4993510;28;20049;-66
2022/11/11 04:47:37;;;;;;;10.45;5.43;;;;;;;9.69;100.00;101694.25;4994200;28;20508;-65
2022/11/11 04:50:04;;;;;;;8.18;5.13;;;;;;;9.56;100.00;101692.53;4994490;28;20065;-66
2022/11/11 04:52:30;;;;;;;7.60;5.30;;;;;;;9.51;100.00;101696.06;4993091;28;20109;-66
2022/11/11 04:57:46;;;;;;;12.10;5.03;;;;;;;9.28;100.00;101690.78;4994214;28;20041;-65
2022/11/11 05:00:15;;;;;;;9.88;5.10;;;;;;;9.21;100.00;101683.69;4993857;28;20030;-66
2022/11/11 05:05:25;;;;;;;13.68;6.80;;;;;;;9.14;100.00;101687.25;4974448;28;20038;-66
2022/11/11 05:10:35;;;;;;;11.32;6.05;;;;;;;9.15;100.00;101697.88;4993598;28;20113;-66
2022/11/11 05:21:21;;;;;;;12.85;5.97;;;;;;;9.27;100.00;101720.88;5010057;28;20068;-66
2022/11/11 05:26:32;;;;;;;8.43;4.00;;;;;;;9.08;100.00;101722.66;5013096;28;20104;-65
2022/11/11 05:28:57;;;;;;;11.52;5.65;;;;;;;8.92;100.00;101733.25;5007183;28;20026;-66
2022/11/11 05:31:23;;;;;;;8.82;4.50;;;;;;;8.94;100.00;101734.13;4993256;28;20108;-66
2022/11/11 05:33:48;;;;;;;9.85;5.03;;;;;;;8.94;100.00;101731.47;4992897;28;20046;-66
2022/11/11 05:36:14;;;;;;;16.63;5.80;;;;;;;8.99;100.00;101732.38;4992842;28;20402;-66
2022/11/11 05:38:39;;;;;;;9.30;5.22;;;;;;;9.04;100.00;101739.44;4992887;28;20033;-66
2022/11/11 05:41:06;;;;;;;13.98;5.28;;;;;;;9.05;100.00;101740.34;4992710;28;20419;-65
2022/11/11 05:43:31;;;;;;;11.85;5.28;;;;;;;8.97;100.00;101737.69;4992609;28;20034;-66
2022/11/11 05:45:57;;;;;;;19.30;4.70;;;;;;;9.02;100.00;101740.34;4992764;28;20092;-66
2022/11/11 05:48:22;;;;;;;15.93;6.07;;;;;;;9.07;100.00;101744.78;4992752;28;20026;-66
2022/11/11 05:50:48;;;;;;;16.73;5.82;;;;;;;9.07;100.00;101749.19;4995522;28;20053;-67
2022/11/11 05:53:13;;;;;;;17.45;5.05;;;;;;;9.11;100.00;101756.25;4992673;28;20030;-67
2022/11/11 05:55:38;;;;;;;12.95;5.50;;;;;;;9.10;100.00;101758.03;4992759;28;20031;-67
2022/11/11 05:58:04;;;;;;;16.20;5.60;;;;;;;9.13;100.00;101760.69;4992764;28;20547;-67
2022/11/11 06:00:29;;;;;;;13.50;5.07;;;;;;;9.16;100.00;101757.16;4992705;28;20034;-67
2022/11/11 06:03:01;;;;;;;12.88;6.65;;;;;;;9.19;100.00;101759.81;4992720;28;20022;-66
2022/11/11 06:05:27;;;;;;;14.52;5.85;;;;;;;9.19;100.00;101760.69;4992169;28;20608;-67
2022/11/11 06:07:53;;;;;;;11.30;5.05;;;;;;;9.21;100.00;101763.34;4992627;28;20028;-67
2022/11/11 06:10:30;;;;;;;22.17;6.43;;;;;;;9.18;100.00;101753.63;4992234;28;20128;-67
2022/11/11 06:13:08;;;;;;;8.23;4.95;;;;;;;9.11;100.00;101762.47;4992681;28;20031;-67
2022/11/11 06:15:36;;;;;;;20.38;7.13;;;;;;;9.11;100.00;101761.56;4992740;28;20085;-66
2022/11/11 06:18:02;;;;;;;16.70;6.13;;;;;;;9.03;100.00;101758.91;4992648;28;20478;-66
2022/11/11 06:20:28;;;;;;;12.02;5.22;;;;;;;9.03;100.00;101760.66;4992260;28;20456;-66
2022/11/11 06:22:57;;;;;;;14.27;5.78;;;;;;;8.95;100.00;101752.72;4992224;28;20113;-66
2022/11/11 06:28:14;;;;;;;16.75;5.32;;;;;;;8.89;100.00;101759.78;4992547;28;20097;-67
2022/11/11 06:30:40;;;;;;;11.75;5.40;;;;;;;8.83;100.00;101759.78;4992595;28;20084;-66
2022/11/11 06:33:06;;;;;;;15.15;5.13;;;;;;;8.88;100.00;101763.31;4992272;28;20660;-66
2022/11/11 06:35:36;;;;;;;8.63;4.50;;;;;;;8.93;100.00;101756.22;4992057;28;20033;-66
2022/11/11 06:38:03;;;;;;;13.13;5.63;;;;;;;8.95;100.00;101749.16;4992187;28;20038;-67
2022/11/11 06:40:29;;;;;;;11.95;5.88;;;;;;;8.99;100.00;101756.25;4991842;28;20341;-66
2022/11/11 06:42:59;;;;;;;16.77;6.40;;;;;;;9.03;100.00;101768.63;4989618;28;20458;-66
2022/11/11 06:45:26;;;;;;;68.72;8.35;;;;;;;8.98;100.00;101765.09;4990191;28;20030;-66
2022/11/11 06:47:51;;;;;;;13.13;6.05;;;;;;;9.03;100.00;101771.28;4991738;28;20026;-67
2022/11/11 06:50:18;;;;;;;13.80;5.55;;;;;;;9.06;100.00;101777.50;4992074;28;20406;-66
2022/11/11 06:52:43;;;;;;;24.42;5.45;;;;;;;9.08;100.00;101773.06;4991496;28;20474;-66
2022/11/11 06:55:09;;;;;;;21.25;5.70;;;;;;;9.13;100.00;101781.03;4994654;28;20081;-66
2022/11/11 06:57:35;;;;;;;14.13;5.60;;;;;;;9.15;100.00;101781.94;4990249;28;20048;-66
2022/11/11 07:00:00;;;;;;;18.00;5.78;;;;;;;9.17;100.00;101781.06;4988760;28;20115;-66
2022/11/11 07:02:26;;;;;;;14.70;5.95;;;;;;;9.19;100.00;101787.25;4990582;28;20030;-65
2022/11/11 07:04:52;;;;;;;9.68;5.40;;;;;;;9.23;100.00;101789.03;4990837;28;20058;-65
2022/11/11 07:07:17;;;;;;;13.35;5.78;;;;;;;9.24;100.00;101788.13;4990655;28;20030;-65
2022/11/11 07:09:42;;;;;;;43.03;6.10;;;;;;;9.28;100.00;101786.38;4993311;28;20053;-65
2022/11/11 07:12:08;;;;;;;12.73;4.88;;;;;;;9.29;100.00;101790.81;4991066;28;20030;-65
2022/11/11 07:14:34;;;;;;;8.02;4.43;;;;;;;9.27;100.00;101790.78;4991301;28;20034;-66
2022/11/11 07:16:59;;;;;;;12.45;4.70;;;;;;;9.30;100.00;101785.50;4990531;28;20026;-66
2022/11/11 07:19:24;;;;;;;9.98;4.22;;;;;;;9.31;100.00;101789.03;5002827;28;20038;-65
2022/11/11 07:21:50;;;;;;;38.72;7.32;;;;;;;9.34;100.00;101791.66;4990196;28;20026;-66
2022/11/11 07:24:15;;;;;;;14.25;5.45;;;;;;;9.32;100.00;101785.50;4991563;28;20075;-65
2022/11/11 07:26:41;;;;;;;10.85;4.90;;;;;;;9.48;100.00;101804.97;4995058;28;20022;-65
2022/11/11 07:29:07;;;;;;;11.40;6.15;;;;;;;9.52;100.00;101801.44;4990294;28;20030;-66
2022/11/11 07:31:32;;;;;;;11.93;4.55;;;;;;;9.65;100.00;101805.88;4983723;28;20105;-65
2022/11/11 07:33:58;;;;;;;10.63;5.07;;;;;;;9.64;100.00;101804.97;4987299;28;20129;-66
2022/11/11 07:36:23;;;;;;;17.27;6.63;;;;;;;9.63;100.00;101805.88;4986197;28;20034;-66
2022/11/11 07:38:49;;;;;;;16.50;6.32;;;;;;;9.65;100.00;101804.09;4986776;28;20030;-65
2022/11/11 07:41:14;;;;;;;11.85;6.97;;;;;;;9.68;100.00;101801.44;4986259;28;20038;-65
2022/11/11 07:43:39;;;;;;;10.98;5.97;;;;;;;9.73;100.00;101804.09;4987601;28;20038;-65
2022/11/11 07:46:05;;;;;;;15.48;6.60;;;;;;;9.76;100.00;101802.31;4986821;28;20030;-65
2022/11/11 07:48:30;;;;;;;12.40;6.43;;;;;;;9.82;100.00;101810.25;4987059;28;20038;-66
2022/11/11 07:50:56;;;;;;;15.00;6.45;;;;;;;9.85;100.00;101806.75;4987527;28;20049;-65
2022/11/11 07:53:21;;;;;;;15.20;6.78;;;;;;;9.84;100.00;101799.63;4988092;28;20464;-65
2022/11/11 07:55:47;;;;;;;15.02;6.65;;;;;;;9.86;100.00;101808.50;4989486;28;20034;-65
2022/11/11 07:58:12;;;;;;;15.07;5.45;;;;;;;9.88;100.00;101804.06;4987974;28;20026;-65
2022/11/11 08:00:38;;;;;;;13.27;6.18;;;;;;;9.96;100.00;101803.19;4991689;28;20382;-65
2022/11/11 08:03:03;;;;;;;18.33;7.07;;;;;;;9.98;100.00;101795.19;4989202;28;20046;-66
2022/11/11 08:05:29;;;;;;;16.13;7.57;;;;;;;10.00;100.00;101802.28;4988509;28;20026;-65
2022/11/11 08:07:54;;;;;;;19.48;8.30;;;;;;;10.05;100.00;101804.94;4989836;28;20062;-65
2022/11/11 08:10:20;;;;;;;15.70;6.78;;;;;;;10.06;100.00;101796.97;4988959;28;20478;-64
2022/11/11 08:15:29;;;;;;;22.55;9.90;;;;;;;10.15;100.00;101809.34;4970047;28;20085;-65
2022/11/11 08:17:54;;;;;;;19.92;10.18;;;;;;;10.20;100.00;101810.22;4985356;28;20026;-65
2022/11/11 08:20:20;;;;;;;22.77;9.48;;;;;;;10.25;100.00;101813.75;4987743;28;20397;-64
2022/11/11 08:22:45;;;;;;;26.02;9.90;;;;;;;10.30;100.00;101807.56;4989063;28;20038;-65
2022/11/11 08:25:15;;;;;;;28.83;10.00;;;;;;;10.41;100.00;101811.06;4984175;28;20069;-65
2022/11/11 08:27:40;;;;;;;16.73;7.43;;;;;;;10.36;100.00;101811.97;4987724;28;20026;-66
2022/11/11 08:30:08;;;;;;;22.25;7.65;;;;;;;10.45;100.00;101807.50;4992710;28;20038;-66
2022/11/11 08:32:33;;;;;;;13.32;7.10;;;;;;;10.50;100.00;101811.03;4989921;28;20584;-65
2022/11/11 08:34:59;;;;;;;13.35;6.78;;;;;;;10.45;100.00;101807.50;4991266;28;20023;-66
2022/11/11 08:37:24;;;;;;;16.58;7.03;;;;;;;10.53;100.00;101802.16;4992161;28;20038;-65
2022/11/11 08:39:51;;;;;;;15.68;6.82;;;;;;;10.56;100.00;101795.03;4988270;28;20482;-64
2022/11/11 08:42:17;;;;;;;18.05;7.82;;;;;;;10.53;100.00;101792.41;4990508;28;20027;-65
2022/11/11 08:44:42;;;;;;;15.45;7.35;;;;;;;10.59;100.00;101789.69;4990891;28;20061;-64
2022/11/11 08:47:08;;;;;;;16.55;7.50;;;;;;;10.64;100.00;101795.03;4987748;28;20030;-65
2022/11/11 08:49:33;;;;;;;21.10;9.10;;;;;;;10.76;100.00;101802.06;4990909;28;20038;-65
2022/11/11 08:51:59;;;;;;;16.65;7.22;;;;;;;10.80;100.00;101795.81;4988900;28;20031;-65
2022/11/11 08:54:25;;;;;;;11.40;5.95;;;;;;;10.76;100.00;101797.59;4986091;28;20030;-65
2022/11/11 08:56:50;;;;;;;19.17;6.38;;;;;;;10.79;100.00;101799.38;4992180;28;20403;-66
2022/11/11 08:59:15;;;;;;;11.50;6.22;;;;;;;10.82;100.00;101802.91;4993015;28;20040;-64
2022/11/11 09:01:41;;;;;;;12.73;6.68;;;;;;;10.88;100.00;101807.31;4988100;28;20365;-66
2022/11/11 09:04:06;;;;;;;14.13;6.68;;;;;;;10.80;100.00;101804.69;4998716;28;20416;-65
2022/11/11 09:06:32;;;;;;;14.68;7.10;;;;;;;10.84;100.00;101801.09;4990386;28;20018;-64
2022/11/11 09:08:57;;;;;;;13.88;6.13;;;;;;;10.73;100.00;101791.41;4989831;28;20121;-65
2022/11/11 09:11:22;;;;;;;16.02;7.50;;;;;;;10.91;100.00;101807.28;4993076;28;20153;-65
2022/11/11 09:13:48;;;;;;;12.02;6.82;;;;;;;11.04;100.00;101796.56;4992726;28;20038;-65
2022/11/11 09:16:13;;;;;;;14.57;7.70;;;;;;;11.13;100.00;101801.84;4989031;28;20080;-65
2022/11/11 09:18:39;;;;;;;18.02;7.47;;;;;;;11.06;100.00;101796.53;4992027;28;20385;-65
2022/11/11 09:21:05;;;;;;;16.02;7.80;;;;;;;11.16;100.00;101803.59;4992088;28;20034;-65
2022/11/11 09:23:31;;;;;;;27.48;10.52;;;;;;;11.20;100.00;101800.88;4989959;28;20038;-65
2022/11/11 09:26:02;;;;;;;27.23;9.50;;;;;;;11.24;100.00;101807.97;4993260;28;20118;-65
2022/11/11 09:28:29;;;;;;;15.07;7.82;;;;;;;11.08;100.00;101800.09;4985717;28;20394;-65
2022/11/11 09:30:54;;;;;;;17.48;7.50;;;;;;;11.12;100.00;101801.84;4987908;28;20037;-65
2022/11/11 09:33:19;;;;;;;12.65;6.53;;;;;;;11.21;100.00;101799.13;4992940;28;20034;-65
2022/11/11 09:35:45;;;;;;;15.82;7.45;;;;;;;11.26;100.00;101803.53;4990946;28;20378;-65
2022/11/11 09:38:10;;;;;;;13.27;6.85;;;;;;;11.18;100.00;101799.13;4991871;28;20081;-65
2022/11/11 09:41:04;;;;;;;13.07;6.47;;;;;;;10.99;100.00;101800.16;4991986;28;20076;-65
2022/11/11 09:43:36;;;;;;;;;;;;;;;10.92;100.00;101803.75;4991158;28;20036;-64
2022/11/11 09:46:25;;;;;;;15.25;6.90;;;;;;;10.82;100.00;101791.38;4992474;28;20052;-65
2022/11/11 09:49:02;;;;;;;15.23;8.25;;;;;;;10.93;100.00;101803.72;4992372;28;20030;-65
2022/11/11 09:51:50;;;;;;;16.45;8.48;;;;;;;10.86;100.00;101795.78;4979086;28;20034;-65
2022/11/11 09:54:21;;;;;;;14.65;7.13;;;;;;;10.99;100.00;101809.00;4982299;28;20049;-64
2022/11/11 09:56:47;;;;;;;16.95;7.88;;;;;;;11.09;100.00;101796.53;4991149;28;20030;-64
2022/11/11 09:59:15;;;;;;;14.93;7.80;;;;;;;10.96;100.00;101797.50;4987332;28;20097;-64
2022/11/11 10:01:54;;;;;;;13.82;7.43;;;;;;;10.96;100.00;101792.16;4990356;28;20027;-64
2022/11/11 10:04:37;;;;;;;16.60;8.05;;;;;;;11.09;100.00;101797.41;4989838;28;20062;-64
2022/11/11 10:07:10;;;;;;;15.05;8.02;;;;;;;11.15;100.00;101800.03;4990136;28;20034;-64
2022/11/11 10:09:59;;;;;;;16.02;8.50;;;;;;;11.31;100.00;101798.16;4989263;28;20580;-65
2022/11/11 10:12:32;;;;;;;17.45;8.23;;;;;;;11.08;100.00;101781.44;4989339;28;20038;-64
2022/11/11 10:15:00;;;;;;;16.65;9.15;;;;;;;11.22;100.00;101791.09;4987630;28;20084;-64
2022/11/11 10:17:31;;;;;;;15.60;8.27;;;;;;;11.22;100.00;101782.25;4987276;28;20034;-64
2022/11/11 10:20:27;;;;;;;15.52;7.50;;;;;;;11.24;100.00;101785.78;4989385;28;20030;-64
2022/11/11 10:23:10;;;;;;;12.65;6.00;;;;;;;11.33;100.00;101788.38;4984194;28;20202;-64
2022/11/11 10:25:41;;;;;;;15.93;8.18;;;;;;;11.46;100.00;101782.97;4989200;28;20045;-64
2022/11/11 10:28:17;;;;;;;13.93;7.00;;;;;;;11.50;100.00;101781.13;4986720;28;20145;-65
2022/11/11 10:30:43;;;;;;;14.80;7.55;;;;;;;11.57;100.00;101780.19;4985368;28;20030;-65
2022/11/11 10:33:18;;;;;;;13.60;6.03;;;;;;;11.64;100.00;101781.94;4989252;28;20060;-65
2022/11/11 10:35:46;;;;;;;13.45;7.25;;;;;;;11.58;100.00;101777.50;4985098;28;20113;-65
2022/11/11 10:38:33;;;;;;;14.27;8.75;;;;;;;11.60;100.00;101789.03;4989318;28;20018;-65
2022/11/11 10:41:14;;;;;;;11.55;6.70;;;;;;;11.58;100.00;101787.31;4987963;28;20030;-65
2022/11/11 10:43:44;;;;;;;12.30;6.88;;;;;;;11.68;100.00;101789.00;4987268;28;20037;-65
2022/11/11 10:46:20;;;;;;;11.65;6.43;;;;;;;11.77;100.00;101788.94;5002891;28;20030;-65
2022/11/11 10:48:46;;;;;;;11.27;6.90;;;;;;;11.81;100.00;101782.69;4986083;28;20030;-65
2022/11/11 10:51:13;;;;;;;14.13;9.02;;;;;;;11.80;100.00;101778.22;4987744;28;20030;-65
2022/11/11 10:53:38;;;;;;;13.73;9.25;;;;;;;11.57;100.00;101775.75;4986539;28;20085;-65
2022/11/11 10:56:25;;;;;;;12.63;6.60;;;;;;;11.48;100.00;101785.59;4991092;28;20046;-65
2022/11/11 10:59:06;;;;;;;10.70;6.18;;;;;;;11.38;100.00;101783.91;4988740;28;20026;-64
2022/11/11 11:01:42;;;;;;;10.82;6.35;;;;;;;11.29;100.00;101790.19;4990721;28;20061;-64
2022/11/11 11:04:14;;;;;;;9.70;5.82;;;;;;;11.36;100.00;101799.91;4989189;28;20027;-65
2022/11/11 11:06:43;;;;;;;10.63;6.05;;;;;;;11.50;100.00;101791.78;4986957;28;20060;-64
2022/11/11 11:09:34;;;;;;;12.15;6.45;;;;;;;11.63;100.00;101789.03;4986242;28;20030;-65
2022/11/11 11:12:09;;;;;;;12.25;6.63;;;;;;;11.71;100.00;101783.66;4988505;28;20506;-65
2022/11/11 11:14:46;;;;;;;13.02;6.88;;;;;;;11.78;100.00;101790.69;4985952;28;20034;-65
2022/11/11 11:17:20;;;;;;;13.45;6.97;;;;;;;11.90;100.00;101774.56;4986456;28;20347;-65
2022/11/11 11:20:11;;;;;;;11.63;7.47;;;;;;;12.08;100.00;101785.06;4984056;28;20026;-65
2022/11/11 11:22:47;;;;;;;11.90;7.18;;;;;;;12.25;100.00;101775.09;4988893;28;20054;-66
2022/11/11 11:25:13;;;;;;;13.15;7.28;;;;;;;12.23;100.00;101768.88;4984374;28;20019;-65
2022/11/11 11:27:38;;;;;;;13.85;7.90;;;;;;;12.17;99.88;101778.75;4985183;28;20492;-65
2022/11/11 11:30:30;;;;;;;12.73;7.03;;;;;;;12.18;100.00;101773.38;4987058;28;20042;-65
2022/11/11 11:32:57;;;;;;;13.27;8.07;;;;;;;12.14;100.00;101774.31;4980311;28;20074;-65
2022/11/11 11:35:43;;;;;;;12.52;6.57;;;;;;;12.13;99.88;101771.66;4984559;28;20041;-65
2022/11/11 11:38:12;;;;;;;14.43;7.93;;;;;;;12.22;100.00;101769.78;4982701;28;20351;-65
2022/11/11 11:40:55;;;;;;;13.73;7.53;;;;;;;12.32;100.00;101763.41;4989252;28;20073;-65
2022/11/11 11:43:44;;;;;;;11.80;7.87;;;;;;;12.37;100.00;101756.25;4990181;28;20023;-64
2022/11/11 11:46:37;;;;;;;11.50;6.75;;;;;;;12.37;100.00;101756.25;4987388;28;20120;-64
2022/11/11 11:49:23;;;;;;;14.33;7.87;;;;;;;12.49;100.00;101760.53;4987395;28;20030;-65
2022/11/11 11:52:15;;;;;;;15.60;7.25;;;;;;;12.50;99.50;101751.66;4990418;28;20048;-64
2022/11/11 11:54:49;;;;;;;15.30;8.73;;;;;;;12.38;98.93;101750.03;4987478;28;20173;-64
2022/11/11 11:57:32;;;;;;;13.23;7.72;;;;;;;12.47;99.65;101741.88;4989219;28;20124;-66
2022/11/11 12:00:04;;;;;;;13.52;8.00;;;;;;;12.59;99.95;101749.75;4984896;28;20031;-66
2022/11/11 12:03:07;;;;;;;16.03;8.67;;;;;;;12.71;99.63;101746.91;4989635;28;20030;-65
2022/11/11 12:06:08;;;;;;;13.27;8.85;;;;;;;12.75;99.34;101740.63;4989004;28;20045;-65
2022/11/11 12:08:55;;;;;;;14.38;8.70;;;;;;;12.84;98.93;101745.84;4951108;28;20078;-65
2022/11/11 12:11:23;;;;;;;18.27;9.93;;;;;;;12.89;98.70;101746.66;4989379;28;20057;-66
2022/11/11 12:14:03;;;;;;;16.30;8.55;;;;;;;12.89;97.70;101744.00;4991615;28;20036;-65
2022/11/11 12:17:14;;;;;;;14.77;8.18;;;;;;;12.81;98.22;101743.22;4992373;28;20034;-66
2022/11/11 12:20:07;;;;;;;12.10;7.70;;;;;;;12.87;98.94;101748.47;4918474;29;20079;-67
2022/11/11 12:22:41;;;;;;;14.33;7.33;;;;;;;12.85;98.49;101749.41;4991509;28;20057;-67
2022/11/11 12:25:36;;;;;;;16.33;7.50;;;;;;;12.75;97.50;101748.63;4992833;28;20332;-67
2022/11/11 12:28:20;;;;;;;14.77;8.70;;;;;;;12.70;97.54;101753.16;4990652;28;20116;-67
2022/11/11 12:30:51;;;;;;;17.80;8.32;;;;;;;12.65;97.15;101741.66;4992305;28;20475;-67
2022/11/11 12:33:35;;;;;;;14.63;8.48;;;;;;;12.64;97.69;101745.22;4990288;28;20046;-66
2022/11/11 12:36:14;;;;;;;12.32;7.80;;;;;;;12.66;98.11;101743.44;4992365;28;20035;-67
2022/11/11 12:38:51;;;;;;;12.00;7.78;;;;;;;12.59;97.86;101743.50;4987017;28;20359;-67
2022/11/11 12:41:38;;;;;;;16.17;8.00;;;;;;;12.62;98.32;101739.03;4988958;28;20529;-67
2022/11/11 12:44:11;;;;;;;30.95;13.65;;;;;;;12.59;98.68;101740.84;4993078;28;20674;-66